Time;durP1;ratioP1;P1;durP2;ratioP2;P2;SDS_P1;SDS_P2;PMS_P1;PMS_P2;Temp;Humidity;BMP_temperature;BMP_pressure;BME280_temperature;BME280_humidity;BME280_pressure;Samples;Min_cycle;Max_cycle;Signal;HPM_P1;HPM_P2
2022/08/17 00:04:28;;;;;;;26.15;23.35;;;;;;;23.12;56.13;100841.81;6019778;23;20035;-95
2022/08/17 00:06:56;;;;;;;29.48;26.38;;;;;;;23.02;58.34;100851.75;6024586;23;20019;-95
2022/08/17 00:09:27;;;;;;;31.27;28.00;;;;;;;22.86;58.56;100814.56;6155568;23;20009;-95
2022/08/17 00:11:55;;;;;;;29.67;26.50;;;;;;;22.84;57.69;100806.59;6147484;23;20375;-94
2022/08/17 00:14:23;;;;;;;28.05;25.23;;;;;;;22.76;58.52;100806.47;6145360;23;20020;-95
2022/08/17 00:20:19;;;;;;;24.20;21.60;;;;;;;22.89;57.48;100835.88;6172960;23;20004;-96
2022/08/17 00:22:45;;;;;;;25.95;23.33;;;;;;;22.68;57.69;100803.63;6167041;23;20005;-96
2022/08/17 00:25:18;;;;;;;26.75;23.30;;;;;;;22.84;57.52;100825.47;6164341;23;20072;-95
2022/08/17 00:27:44;;;;;;;30.52;27.25;;;;;;;22.65;58.41;100801.19;6139788;23;20048;-95
2022/08/17 00:30:11;;;;;;;32.22;26.38;;;;;;;22.77;58.41;100816.25;6135112;23;20025;-96
2022/08/17 00:32:49;;;;;;;28.77;25.77;;;;;;;22.66;58.06;100801.09;6159633;23;20006;-96
2022/08/17 00:35:18;;;;;;;34.25;30.10;;;;;;;22.71;59.26;100814.13;6137678;23;20001;-95
2022/08/17 00:37:43;;;;;;;32.92;29.17;;;;;;;22.48;59.40;100780.34;6136828;23;20013;-96
2022/08/17 00:40:15;;;;;;;36.42;27.50;;;;;;;22.42;59.99;100784.44;6134374;23;20005;-94
2022/08/17 00:42:43;;;;;;;33.00;29.53;;;;;;;22.23;61.00;100769.09;6161868;23;20071;-96
2022/08/17 00:45:40;;;;;;;35.63;31.05;;;;;;;22.46;60.24;100804.72;6142430;23;20418;-96
2022/08/17 00:48:06;;;;;;;35.90;29.65;;;;;;;22.38;61.08;100810.81;6145916;23;20002;-95
2022/08/17 00:50:35;;;;;;;42.55;33.97;;;;;;;22.18;62.33;100776.75;6145088;23;20012;-95
2022/08/17 00:53:03;;;;;;;35.58;30.95;;;;;;;22.15;61.60;100764.41;6145943;23;20080;-96
2022/08/17 00:55:29;;;;;;;37.00;33.00;;;;;;;22.14;62.59;100773.47;6169580;23;20001;-96
2022/08/17 00:58:16;;;;;;;38.05;32.70;;;;;;;22.18;61.14;100768.66;6148169;23;20044;-96
2022/08/17 01:01:21;;;;;;;43.85;35.50;;;;;;;22.36;61.09;100810.09;6153604;23;20021;-96
2022/08/17 01:07:58;;;;;;;37.60;32.75;;;;;;;22.38;60.28;100780.31;6178258;23;20680;-96
2022/08/17 01:14:27;;;;;;;43.47;33.63;;;;;;;22.51;60.15;100799.78;6090993;23;20014;-96
2022/08/17 01:20:25;;;;;;;37.73;33.67;;;;;;;22.23;61.70;100762.84;6091102;23;20026;-96
2022/08/17 01:26:43;;;;;;;39.78;34.75;;;;;;;22.48;61.25;100794.69;6034165;23;20022;-96
2022/08/17 01:32:32;;;;;;;37.42;32.75;;;;;;;22.50;61.36;100794.53;6028991;23;20015;-96
2022/08/17 01:35:01;;;;;;;44.30;37.33;;;;;;;22.37;62.03;100784.84;6028333;23;20004;-96
2022/08/17 01:41:11;;;;;;;40.67;34.22;;;;;;;22.15;61.63;100750.97;6020502;23;20011;-95
2022/08/17 01:47:31;;;;;;;40.63;36.30;;;;;;;22.14;61.91;100765.38;6052448;23;20017;-95
2022/08/17 01:50:07;;;;;;;42.05;34.90;;;;;;;21.79;62.96;100730.00;6117489;23;20010;-96
2022/08/17 01:56:03;;;;;;;40.55;36.10;;;;;;;21.94;63.61;100763.59;6178314;23;20009;-96
2022/08/17 01:58:32;;;;;;;40.42;33.45;;;;;;;21.82;63.10;100741.34;6152347;23;20001;-96
2022/08/17 02:00:59;;;;;;;41.58;34.17;;;;;;;22.01;62.93;100766.59;6151051;23;20068;-96
2022/08/17 02:04:21;;;;;;;37.90;33.55;;;;;;;22.22;61.61;100782.72;6127730;23;20036;-96
2022/08/17 02:06:52;;;;;;;37.63;33.58;;;;;;;22.17;62.39;100776.88;6174626;23;20062;-96
2022/08/17 02:09:20;;;;;;;38.05;33.15;;;;;;;21.92;62.29;100730.59;6142532;23;20072;-96
2022/08/17 02:11:50;;;;;;;38.10;33.78;;;;;;;22.08;62.68;100763.22;6142053;23;20006;-95
2022/08/17 02:17:44;;;;;;;44.03;36.05;;;;;;;22.04;62.69;100756.41;6144876;23;20009;-96
2022/08/17 02:20:15;;;;;;;38.33;33.65;;;;;;;21.81;63.04;100728.00;6167364;23;20430;-96
2022/08/17 02:22:44;;;;;;;45.88;34.17;;;;;;;21.79;63.53;100730.00;6143131;23;20010;-95
2022/08/17 02:25:13;;;;;;;37.38;33.47;;;;;;;21.79;62.69;100736.22;6140960;23;20013;-95
2022/08/17 02:27:42;;;;;;;39.72;33.20;;;;;;;21.99;62.92;100753.28;6140052;23;20002;-96
2022/08/17 02:30:16;;;;;;;40.13;34.90;;;;;;;21.83;62.98;100726.88;6144466;23;20009;-96
2022/08/17 02:32:42;;;;;;;39.35;33.47;;;;;;;21.85;63.12;100727.59;6144683;23;19990;-95
2022/08/17 02:35:12;;;;;;;39.00;34.67;;;;;;;21.78;63.02;100728.28;6145057;23;20016;-96
2022/08/17 02:37:40;;;;;;;39.65;35.45;;;;;;;21.75;62.87;100726.72;6142025;23;20013;-96
2022/08/17 02:40:09;;;;;;;38.28;34.28;;;;;;;21.90;63.34;100762.19;6141641;23;20029;-95
2022/08/17 02:42:38;;;;;;;36.97;33.13;;;;;;;21.63;63.43;100719.72;6141514;23;20061;-95
2022/08/17 02:45:09;;;;;;;37.92;33.70;;;;;;;21.66;62.93;100722.16;6142694;23;20104;-96
2022/08/17 02:47:37;;;;;;;38.17;34.05;;;;;;;21.59;63.48;100710.22;6141052;23;20012;-96
2022/08/17 02:50:04;;;;;;;37.42;33.50;;;;;;;21.62;62.82;100718.03;6140883;23;20010;-96
2022/08/17 02:52:38;;;;;;;40.72;35.25;;;;;;;21.57;62.20;100710.34;6136944;23;20065;-95
2022/08/17 02:55:14;;;;;;;38.88;34.72;;;;;;;21.57;62.93;100709.50;6140846;23;20006;-96
2022/08/17 02:57:40;;;;;;;41.17;36.72;;;;;;;21.38;63.50;100710.28;6140107;23;20006;-96
2022/08/17 03:00:11;;;;;;;43.55;34.95;;;;;;;21.31;63.29;100711.78;6137086;23;20006;-96
2022/08/17 03:02:40;;;;;;;42.88;38.22;;;;;;;21.38;64.10;100723.72;6139616;23;20013;-96
2022/08/17 03:05:14;;;;;;;38.88;32.63;;;;;;;21.45;62.58;100721.34;6140925;23;20009;-95
2022/08/17 03:07:41;;;;;;;40.08;35.72;;;;;;;21.25;63.54;100705.06;6138430;23;20022;-96
2022/08/17 03:10:08;;;;;;;42.83;36.67;;;;;;;21.32;63.82;100722.44;6139975;23;20016;-95
2022/08/17 03:15:55;;;;;;;47.08;36.28;;;;;;;21.25;63.08;100697.00;6134643;23;20005;-95
2022/08/17 03:21:00;;;;;;;45.63;38.78;;;;;;;21.23;64.85;100700.84;6208902;22;20547;-94
2022/08/17 03:57:35;;;;;;;48.05;37.97;;;;;;;21.18;65.87;100748.78;6149271;23;20511;-94
2022/08/17 04:00:03;;;;;;;44.55;36.97;;;;;;;20.92;65.24;100713.38;6172079;23;20067;-93
2022/08/17 04:02:31;;;;;;;39.88;34.97;;;;;;;21.12;65.30;100744.75;6145886;23;20009;-95
2022/08/17 04:05:18;;;;;;;45.05;38.60;;;;;;;20.94;65.52;100725.72;6151885;23;19993;-93
2022/08/17 05:00:27;;;;;;;41.72;35.92;;;;;;;21.39;67.68;100817.72;6186791;23;20021;-95
2022/08/17 05:18:18;;;;;;;39.78;33.13;;;;;;;21.53;67.69;100837.19;6161169;23;20029;-94
2022/08/17 05:20:46;;;;;;;40.35;34.67;;;;;;;21.18;69.13;100802.56;6188444;23;20021;-96
2022/08/17 05:23:15;;;;;;;41.10;34.45;;;;;;;21.24;69.65;100819.00;6162301;23;20079;-94
2022/08/17 05:25:47;;;;;;;41.70;34.60;;;;;;;21.38;69.14;100826.78;6165108;23;20005;-95
2022/08/17 05:28:15;;;;;;;39.28;32.88;;;;;;;21.28;67.37;100788.19;6166860;23;20472;-94
2022/08/17 05:30:43;;;;;;;42.63;32.30;;;;;;;21.32;68.33;100789.66;6198955;23;20001;-95
2022/08/17 05:33:20;;;;;;;85.60;35.22;;;;;;;21.46;67.98;100799.22;6168627;23;20009;-95
2022/08/17 05:35:55;;;;;;;39.00;33.97;;;;;;;21.44;67.80;100792.25;6168644;23;20013;-93
2022/08/17 05:38:23;;;;;;;41.58;31.75;;;;;;;21.60;67.49;100800.72;6166041;23;20234;-95
2022/08/17 05:40:50;;;;;;;37.30;32.30;;;;;;;21.58;66.83;100791.91;6174539;23;20025;-95
2022/08/17 05:43:26;;;;;;;42.55;31.08;;;;;;;21.69;65.33;100789.16;6199887;23;20084;-95
2022/08/17 05:46:16;;;;;;;37.67;32.20;;;;;;;21.98;66.39;100818.03;6167451;23;20005;-95
2022/08/17 05:48:48;;;;;;;36.00;30.77;;;;;;;21.76;66.39;100776.84;6162804;23;20036;-95
2022/08/17 05:51:37;;;;;;;37.00;31.05;;;;;;;22.03;66.24;100813.09;6163215;23;20001;-95
2022/08/17 05:54:25;;;;;;;36.70;30.65;;;;;;;21.90;65.63;100772.94;6168053;23;20009;-96
2022/08/17 05:57:28;;;;;;;40.65;32.30;;;;;;;22.21;65.62;100810.63;6149437;23;20013;-93
2022/08/17 06:00:15;;;;;;;38.05;30.98;;;;;;;22.24;66.03;100810.34;6194637;23;20031;-94
2022/08/17 06:03:00;;;;;;;37.47;33.47;;;;;;;22.32;66.63;100805.97;6160271;23;20009;-94
2022/08/17 06:05:34;;;;;;;38.15;30.42;;;;;;;22.47;65.04;100803.72;6156548;23;19997;-96
2022/08/17 06:08:10;;;;;;;34.33;28.90;;;;;;;22.60;64.72;100801.63;6156085;23;20702;-95
2022/08/17 06:11:17;;;;;;;43.95;32.63;;;;;;;22.74;64.33;100797.66;6156124;23;20479;-96
2022/08/17 06:14:14;;;;;;;37.30;30.27;;;;;;;22.89;63.61;100817.84;6087584;23;20012;-96
2022/08/17 06:16:44;;;;;;;32.25;27.23;;;;;;;22.93;63.45;100810.31;6153442;23;20020;-94
2022/08/17 06:19:28;;;;;;;35.10;30.17;;;;;;;23.02;63.68;100822.94;6142305;23;20009;-94
2022/08/17 06:21:55;;;;;;;34.80;29.27;;;;;;;23.03;63.86;100848.06;6148039;23;20481;-95
2022/08/17 06:24:44;;;;;;;31.42;28.05;;;;;;;23.06;62.72;100854.03;6150607;23;20001;-95
2022/08/17 06:27:34;;;;;;;30.58;27.30;;;;;;;23.09;62.82;100845.69;6122888;23;20388;-93
2022/08/17 06:30:10;;;;;;;32.00;28.45;;;;;;;23.05;63.20;100849.66;6123041;23;20010;-94
2022/08/17 06:32:37;;;;;;;29.02;25.35;;;;;;;23.09;62.93;100861.84;6124297;23;20002;-94
2022/08/17 06:35:06;;;;;;;27.05;24.10;;;;;;;23.06;62.83;100853.19;6124405;23;20021;-94
2022/08/17 06:37:58;;;;;;;35.67;26.77;;;;;;;23.12;62.53;100866.09;6125051;23;20044;-95
2022/08/17 06:40:48;;;;;;;33.03;26.40;;;;;;;23.09;63.01;100861.00;6123923;23;20020;-95
2022/08/17 06:43:47;;;;;;;30.60;26.13;;;;;;;23.11;62.75;100857.16;6123671;23;20010;-94
2022/08/17 06:46:22;;;;;;;28.52;24.65;;;;;;;23.04;62.37;100853.34;6125613;23;20012;-95
2022/08/17 06:49:18;;;;;;;30.02;24.45;;;;;;;23.16;62.05;100862.97;6125458;23;20097;-95
2022/08/17 06:52:16;;;;;;;30.17;26.05;;;;;;;23.21;62.64;100870.63;6101758;23;20010;-96
2022/08/17 06:54:54;;;;;;;31.23;26.88;;;;;;;23.13;62.63;100859.72;6152149;23;20009;-95
2022/08/17 06:57:25;;;;;;;27.40;24.48;;;;;;;23.17;62.44;100870.09;6152312;23;20455;-94
2022/08/17 06:59:59;;;;;;;32.40;25.77;;;;;;;23.27;62.56;100875.47;6125239;23;20012;-95
2022/08/17 07:02:56;;;;;;;33.05;25.55;;;;;;;23.36;62.14;100876.44;6125823;23;20009;-95
2022/08/17 07:05:29;;;;;;;28.42;24.77;;;;;;;23.39;62.19;100887.81;6152376;23;20084;-94
2022/08/17 07:08:21;;;;;;;26.83;23.85;;;;;;;23.49;61.10;100879.69;6151621;23;20013;-95
2022/08/17 07:10:54;;;;;;;31.13;26.33;;;;;;;23.49;62.53;100882.41;6152356;23;20008;-96
2022/08/17 07:13:45;;;;;;;31.88;24.08;;;;;;;23.59;61.15;100882.38;6125598;23;20005;-94
2022/08/17 07:16:19;;;;;;;36.92;25.58;;;;;;;23.51;60.85;100874.19;6151920;23;20444;-96
2022/08/17 07:18:45;;;;;;;36.72;26.25;;;;;;;23.52;61.18;100886.66;6107253;23;20451;-95
2022/08/17 07:21:20;;;;;;;31.23;24.35;;;;;;;23.54;61.44;100873.88;6155300;23;20429;-94
2022/08/17 07:24:24;;;;;;;35.30;23.33;;;;;;;23.71;60.33;100883.13;6156405;23;20448;-95
2022/08/17 07:27:06;;;;;;;27.70;24.00;;;;;;;23.71;60.59;100877.72;6155842;23;20327;-96
2022/08/17 07:29:38;;;;;;;28.85;24.63;;;;;;;23.62;60.30;100868.59;6181293;23;20009;-96
2022/08/17 07:32:04;;;;;;;28.17;24.30;;;;;;;23.68;60.00;100881.53;6180654;23;20009;-96
2022/08/17 07:34:29;;;;;;;26.05;23.15;;;;;;;23.64;60.26;100877.44;6155858;23;20498;-95
2022/08/17 07:37:03;;;;;;;27.13;24.20;;;;;;;23.75;60.43;100890.78;6156592;23;19996;-94
2022/08/17 07:39:30;;;;;;;25.23;22.63;;;;;;;23.76;59.68;100887.06;6181540;23;20001;-94
2022/08/17 07:42:03;;;;;;;26.33;23.60;;;;;;;23.78;59.94;100895.91;6187544;23;20297;-96
2022/08/17 07:44:28;;;;;;;26.55;23.58;;;;;;;23.71;60.03;100891.22;6157851;23;20140;-95
2022/08/17 07:49:47;;;;;;;26.42;23.15;;;;;;;23.79;60.28;100912.94;6183984;23;20086;-92
2022/08/17 07:52:31;;;;;;;25.02;20.98;;;;;;;23.85;59.46;100915.91;6158433;23;20011;-95
2022/08/17 07:54:57;;;;;;;26.15;22.70;;;;;;;23.91;59.78;100917.16;6158816;23;20080;-96
2022/08/17 07:57:30;;;;;;;29.92;23.20;;;;;;;23.95;59.47;100926.69;6159823;23;20001;-95
2022/08/17 07:59:58;;;;;;;23.65;21.25;;;;;;;24.02;59.24;100924.25;6155625;23;20020;-94
2022/08/17 08:02:40;;;;;;;23.05;20.58;;;;;;;24.09;58.57;100928.06;6154849;23;20487;-95
2022/08/17 08:05:21;;;;;;;23.65;21.25;;;;;;;24.12;58.92;100922.38;6157268;23;20009;-95
2022/08/17 08:07:46;;;;;;;25.15;22.17;;;;;;;24.18;58.43;100928.03;6178256;23;20008;-93
2022/08/17 08:10:26;;;;;;;22.03;19.77;;;;;;;24.25;58.30;100931.00;6152680;23;20015;-93
2022/08/17 08:13:06;;;;;;;23.48;19.80;;;;;;;24.31;58.24;100924.16;6154199;23;20274;-93
2022/08/17 08:15:36;;;;;;;22.25;19.38;;;;;;;24.46;57.58;100935.34;6155262;23;20413;-94
2022/08/17 08:18:04;;;;;;;22.02;19.73;;;;;;;24.52;57.76;100930.19;6179147;23;20437;-93
2022/08/17 08:20:45;;;;;;;22.38;20.08;;;;;;;24.62;57.11;100925.59;6154424;23;20457;-93
2022/08/17 08:23:18;;;;;;;25.40;22.80;;;;;;;24.64;57.94;100914.63;6154048;23;20044;-93
2022/08/17 08:25:59;;;;;;;23.92;21.13;;;;;;;24.71;56.88;100918.41;6179351;23;20355;-94
2022/08/17 08:28:50;;;;;;;26.45;22.02;;;;;;;24.75;56.87;100903.59;6154210;23;20460;-93
2022/08/17 08:31:28;;;;;;;25.42;21.23;;;;;;;24.61;56.95;100890.59;6178782;23;20039;-93
2022/08/17 08:34:07;;;;;;;41.17;24.08;;;;;;;24.52;57.18;100884.22;6153968;23;20337;-93
2022/08/17 08:36:51;;;;;;;28.58;22.80;;;;;;;24.46;57.40;100851.56;6154984;23;20013;-94
2022/08/17 08:39:23;;;;;;;23.35;20.75;;;;;;;24.55;57.14;100873.13;6154063;23;20009;-95
2022/08/17 08:42:11;;;;;;;24.38;21.80;;;;;;;24.64;57.51;100906.53;6152964;23;20040;-93
2022/08/17 08:44:53;;;;;;;23.92;21.23;;;;;;;24.82;56.93;100933.59;6180682;23;20008;-92
2022/08/17 08:47:56;;;;;;;25.20;21.70;;;;;;;25.23;56.15;100940.34;6153070;23;20432;-94
2022/08/17 08:50:53;;;;;;;25.13;21.35;;;;;;;25.53;55.64;100940.94;6153235;23;20248;-93
2022/08/17 08:53:45;;;;;;;28.00;21.70;;;;;;;25.73;54.88;100926.19;6179719;23;20416;-93
2022/08/17 08:56:30;;;;;;;23.63;20.95;;;;;;;25.88;53.99;100932.78;6181353;23;20057;-95
2022/08/17 08:59:01;;;;;;;30.30;23.52;;;;;;;25.86;54.11;100915.81;6153856;23;20008;-93
2022/08/17 09:01:45;;;;;;;27.63;21.92;;;;;;;25.91;53.56;100904.50;6178782;23;20448;-94
2022/08/17 09:04:36;;;;;;;26.30;23.60;;;;;;;25.97;53.75;100897.59;6153344;23;20105;-93
2022/08/17 09:07:32;;;;;;;25.25;22.50;;;;;;;26.06;54.10;100907.47;6179452;23;20047;-92
2022/08/17 09:10:24;;;;;;;34.47;23.00;;;;;;;26.05;53.88;100922.03;6153323;23;20005;-93
2022/08/17 09:12:58;;;;;;;29.08;22.80;;;;;;;26.18;52.67;100926.00;6100280;23;20013;-93
2022/08/17 09:15:30;;;;;;;30.13;25.02;;;;;;;26.15;52.72;100923.63;6153796;23;20103;-94
2022/08/17 09:18:09;;;;;;;27.45;23.40;;;;;;;26.13;52.51;100922.09;6178685;23;20013;-92
2022/08/17 09:20:48;;;;;;;29.63;25.35;;;;;;;26.01;53.46;100923.34;6179556;23;20009;-94
2022/08/17 09:23:31;;;;;;;29.15;26.08;;;;;;;25.77;53.35;100924.06;6154261;23;20009;-95
2022/08/17 09:26:09;;;;;;;27.85;24.77;;;;;;;25.57;54.08;100934.19;6180772;23;20001;-93
2022/08/17 09:28:36;;;;;;;31.60;26.25;;;;;;;25.44;54.21;100938.13;6153055;23;20065;-94
2022/08/17 09:31:19;;;;;;;29.65;25.65;;;;;;;25.40;54.50;100947.56;6153016;23;20020;-93
2022/08/17 09:33:47;;;;;;;29.40;25.20;;;;;;;25.22;54.94;100938.59;6153065;23;20459;-92
2022/08/17 09:36:20;;;;;;;27.65;22.67;;;;;;;25.20;55.63;100954.16;6154431;23;20008;-93
2022/08/17 09:39:14;;;;;;;29.30;25.23;;;;;;;25.14;55.66;100960.19;6153272;23;20012;-94
2022/08/17 09:41:54;;;;;;;30.35;23.83;;;;;;;25.09;56.04;100978.75;6153194;23;20048;-93
2022/08/17 09:44:35;;;;;;;29.10;24.70;;;;;;;25.01;56.46;100986.72;6153399;23;20001;-93
2022/08/17 09:47:09;;;;;;;30.00;26.80;;;;;;;24.91;56.76;101008.44;6153368;23;20004;-94
2022/08/17 09:49:43;;;;;;;30.70;26.55;;;;;;;24.68;57.71;101010.66;6152843;23;20099;-93
2022/08/17 09:52:28;;;;;;;36.00;28.52;;;;;;;24.40;58.11;101021.44;6154005;23;20444;-93
2022/08/17 09:54:55;;;;;;;36.92;26.40;;;;;;;24.26;59.71;101019.16;6154567;23;20408;-93
2022/08/17 09:58:08;;;;;;;31.98;28.60;;;;;;;24.38;59.09;101026.13;6155648;23;20111;-95
2022/08/17 10:00:57;;;;;;;36.70;28.08;;;;;;;24.27;60.92;101020.88;6168537;23;20076;-93
2022/08/17 10:03:56;;;;;;;33.20;28.92;;;;;;;24.16;61.04;101016.50;6175746;23;20065;-91
2022/08/17 10:06:32;;;;;;;30.30;27.02;;;;;;;23.90;62.71;101015.38;6144216;23;20041;-94
2022/08/17 10:09:17;;;;;;;33.10;27.52;;;;;;;23.84;63.05;101018.66;6181609;23;20064;-92
2022/08/17 10:14:32;;;;;;;34.97;28.15;;;;;;;23.64;64.25;101024.06;6087761;23;20025;-94
2022/08/17 10:17:09;;;;;;;31.42;27.63;;;;;;;23.56;64.76;101025.75;6083920;23;20294;-94
2022/08/17 10:19:44;;;;;;;35.35;28.27;;;;;;;23.48;66.64;101029.13;6063447;23;20065;-95
2022/08/17 10:28:15;;;;;;;35.85;29.60;;;;;;;22.83;70.75;101035.91;6084139;23;20355;-91
2022/08/17 10:30:53;;;;;;;37.70;29.58;;;;;;;22.74;69.72;101016.00;6084823;23;20054;-91
2022/08/17 10:33:22;;;;;;;41.30;32.35;;;;;;;22.78;72.71;101014.75;6061817;23;20581;-93
2022/08/17 10:36:20;;;;;;;40.80;31.58;;;;;;;22.81;71.39;101008.22;6084958;23;20006;-92
2022/08/17 10:39:01;;;;;;;37.67;31.95;;;;;;;22.80;71.26;100991.22;6068704;23;20481;-91
2022/08/17 10:41:44;;;;;;;39.70;32.13;;;;;;;22.74;70.61;100964.78;6088277;23;20347;-91
2022/08/17 10:44:46;;;;;;;37.25;31.90;;;;;;;22.87;68.60;100976.16;6147876;23;20009;-94
2022/08/17 10:47:16;;;;;;;36.50;31.73;;;;;;;22.82;71.04;100973.03;6147122;23;20021;-92
2022/08/17 10:49:48;;;;;;;33.92;29.80;;;;;;;22.87;70.66;100962.69;6119369;23;20005;-91
2022/08/17 10:52:19;;;;;;;38.15;30.35;;;;;;;23.00;70.09;100962.47;6120793;23;20146;-91
2022/08/17 10:54:55;;;;;;;39.25;30.35;;;;;;;22.99;70.63;100962.59;6121835;23;20009;-92
2022/08/17 10:57:32;;;;;;;33.03;29.52;;;;;;;23.08;69.20;100967.16;6147631;23;20030;-92
2022/08/17 11:00:08;;;;;;;37.70;30.55;;;;;;;23.12;70.09;100968.59;6120650;23;20044;-92
2022/08/17 11:02:44;;;;;;;33.38;28.77;;;;;;;23.18;69.31;100973.44;6146884;23;20013;-92
2022/08/17 11:05:49;;;;;;;34.55;28.73;;;;;;;23.20;69.11;100966.03;6121399;23;20009;-91
2022/08/17 11:08:37;;;;;;;38.42;30.25;;;;;;;23.14;70.76;100967.47;6113859;23;20044;-92
2022/08/17 11:11:19;;;;;;;34.20;30.27;;;;;;;23.04;70.28;100963.06;6121167;23;20432;-92
2022/08/17 11:14:16;;;;;;;36.17;30.52;;;;;;;23.06;69.84;100979.94;6145975;23;20032;-93
2022/08/17 11:16:57;;;;;;;32.53;29.13;;;;;;;23.04;69.42;100974.69;6120683;23;20005;-93
2022/08/17 11:19:40;;;;;;;32.72;28.67;;;;;;;23.05;70.35;100979.09;6158057;23;20104;-92
2022/08/17 11:22:12;;;;;;;37.10;28.98;;;;;;;23.08;70.98;100978.81;6176561;23;20340;-92
2022/08/17 11:24:41;;;;;;;31.90;26.35;;;;;;;23.11;70.43;100975.81;6151668;23;20009;-94
2022/08/17 11:27:12;;;;;;;37.85;31.08;;;;;;;23.17;70.74;100988.78;6150573;23;20431;-93
2022/08/17 11:29:53;;;;;;;35.22;30.63;;;;;;;23.16;70.18;100980.81;6150626;23;20004;-91
2022/08/17 11:32:30;;;;;;;36.50;32.60;;;;;;;23.10;70.98;100998.41;6175590;23;20005;-92
2022/08/17 11:35:24;;;;;;;38.03;31.90;;;;;;;23.10;71.59;101009.19;6149840;23;20009;-92
2022/08/17 11:38:03;;;;;;;34.40;30.65;;;;;;;23.02;71.10;101003.63;6178593;23;20080;-92
2022/08/17 11:40:36;;;;;;;37.45;30.92;;;;;;;23.08;70.62;101021.97;6179694;23;20008;-93
2022/08/17 11:43:25;;;;;;;41.33;33.53;;;;;;;23.05;71.62;101024.94;6152579;23;20039;-93
2022/08/17 11:45:56;;;;;;;38.60;33.45;;;;;;;23.05;72.00;101029.47;6151757;23;20410;-92
2022/08/17 11:51:54;;;;;;;39.35;33.65;;;;;;;23.02;70.84;101035.13;6178836;23;20471;-92
2022/08/17 11:54:28;;;;;;;38.20;33.42;;;;;;;23.03;71.62;101037.69;6152277;23;20425;-90
2022/08/17 11:56:54;;;;;;;39.05;34.85;;;;;;;22.96;71.98;101027.59;6178869;23;20009;-91
2022/08/17 12:00:07;;;;;;;40.67;34.83;;;;;;;23.14;71.84;101050.22;6178444;23;20385;-91
2022/08/17 12:02:26;;;;;;;40.65;35.63;;;;;;;23.06;72.21;101056.31;6173022;23;20115;-92
2022/08/17 12:05:24;;;;;;;43.20;35.83;;;;;;;23.01;70.96;101050.47;6151467;23;20452;-91
2022/08/17 12:08:04;;;;;;;40.72;34.30;;;;;;;23.16;71.60;101064.41;6152327;23;20079;-93
2022/08/17 12:10:34;;;;;;;40.58;34.60;;;;;;;23.22;71.25;101063.88;6179002;23;20080;-92
2022/08/17 12:13:06;;;;;;;40.17;35.83;;;;;;;23.24;70.99;101067.28;6178934;23;20508;-93
2022/08/17 12:15:36;;;;;;;39.08;32.85;;;;;;;23.13;70.32;101062.88;6152154;23;20004;-92
2022/08/17 12:18:01;;;;;;;39.28;34.50;;;;;;;22.96;70.92;101063.50;6177157;23;20459;-92
2022/08/17 12:20:37;;;;;;;37.70;33.58;;;;;;;23.10;70.74;101079.31;6150542;23;20055;-91
2022/08/17 12:23:18;;;;;;;41.67;36.22;;;;;;;23.03;71.08;101074.59;6149949;23;20009;-93
2022/08/17 12:25:55;;;;;;;42.20;34.47;;;;;;;23.02;70.93;101064.81;6178415;23;20009;-92
2022/08/17 12:28:24;;;;;;;38.20;33.00;;;;;;;23.05;71.70;101067.25;6151105;23;20445;-93
2022/08/17 12:30:51;;;;;;;48.15;37.55;;;;;;;22.83;74.11;101052.06;6151706;23;20009;-89
2022/08/17 12:33:20;;;;;;;42.17;35.53;;;;;;;22.78;73.93;101059.72;6178701;23;20009;-90
2022/08/17 12:35:46;;;;;;;41.13;35.42;;;;;;;22.74;72.19;101051.03;6152220;23;20497;-91
2022/08/17 12:38:15;;;;;;;44.38;34.85;;;;;;;22.73;71.92;101049.34;6177241;23;20107;-92
2022/08/17 12:40:52;;;;;;;40.35;34.00;;;;;;;22.85;72.92;101059.03;6151476;23;20005;-92
2022/08/17 12:43:20;;;;;;;41.50;34.00;;;;;;;22.85;72.63;101064.44;6151111;23;20013;-91
2022/08/17 12:45:58;;;;;;;42.92;35.63;;;;;;;22.91;73.61;101063.91;6151100;23;20009;-91
2022/08/17 12:48:26;;;;;;;38.45;33.55;;;;;;;22.91;72.02;101066.63;6150625;23;20005;-92
2022/08/17 12:50:59;;;;;;;38.22;33.55;;;;;;;22.78;72.62;101063.25;6178464;23;20428;-91
2022/08/17 12:53:28;;;;;;;39.45;32.63;;;;;;;22.66;73.10;101048.16;6177991;23;20005;-89
2022/08/17 12:55:56;;;;;;;39.03;33.35;;;;;;;22.78;72.42;101062.41;6178577;23;20440;-90
2022/08/17 12:58:27;;;;;;;37.50;32.10;;;;;;;22.64;72.58;101056.38;6177897;23;20687;-90
2022/08/17 13:01:08;;;;;;;38.13;33.72;;;;;;;22.61;73.49;101050.41;6177222;23;20008;-91
2022/08/17 13:03:48;;;;;;;41.60;35.20;;;;;;;22.60;72.96;101049.56;6149298;23;20036;-90
2022/08/17 13:06:33;;;;;;;39.95;34.22;;;;;;;22.58;71.89;101062.31;6151752;23;20001;-91
2022/08/17 13:09:23;;;;;;;42.58;36.40;;;;;;;22.57;72.40;101059.75;6151045;23;20005;-91
2022/08/17 13:11:51;;;;;;;38.00;33.90;;;;;;;22.56;71.65;101049.94;6177211;23;20505;-91
2022/08/17 13:14:17;;;;;;;40.83;35.53;;;;;;;22.46;72.72;101046.34;6178739;23;20009;-91
2022/08/17 13:16:54;;;;;;;42.60;34.92;;;;;;;22.41;73.00;101047.59;6178145;23;20059;-91
2022/08/17 13:19:21;;;;;;;37.53;33.33;;;;;;;22.36;71.75;101031.00;6177124;23;20352;-91
2022/08/17 13:21:50;;;;;;;39.92;34.38;;;;;;;22.46;72.17;101031.03;6177476;23;20032;-92
2022/08/17 13:24:24;;;;;;;41.10;35.92;;;;;;;22.51;73.33;101019.88;6150705;23;20455;-92
2022/08/17 13:27:01;;;;;;;38.30;34.00;;;;;;;22.69;72.08;101028.19;6178143;23;20036;-91
2022/08/17 13:29:43;;;;;;;36.97;32.97;;;;;;;22.77;70.94;101026.50;6176390;23;20453;-92
2022/08/17 13:32:10;;;;;;;37.42;32.22;;;;;;;22.97;70.77;101042.78;6150478;23;20005;-92
2022/08/17 13:34:46;;;;;;;39.72;32.67;;;;;;;22.96;70.07;101043.78;6150839;23;20009;-92
2022/08/17 13:37:24;;;;;;;37.60;29.67;;;;;;;22.87;70.16;101048.97;6151539;23;20197;-91
2022/08/17 13:39:50;;;;;;;35.83;31.90;;;;;;;22.80;72.63;101037.03;6150237;23;20009;-91
2022/08/17 13:42:52;;;;;;;37.13;32.78;;;;;;;22.92;70.40;101033.25;6152005;23;20008;-92
2022/08/17 13:45:36;;;;;;;37.55;31.70;;;;;;;22.83;70.88;101019.72;6080809;23;20047;-91
2022/08/17 13:48:22;;;;;;;35.53;30.95;;;;;;;22.81;70.78;101029.81;6176743;23;20047;-92
2022/08/17 13:50:48;;;;;;;38.63;34.13;;;;;;;22.78;72.15;101025.53;6151106;23;20064;-93
2022/08/17 13:53:21;;;;;;;35.13;31.27;;;;;;;22.84;71.66;101024.97;6176390;23;20032;-93
2022/08/17 13:55:59;;;;;;;34.97;31.27;;;;;;;22.95;71.74;101024.06;6176322;23;20079;-93
2022/08/17 13:58:34;;;;;;;34.97;31.25;;;;;;;22.89;71.74;101001.16;6149323;23;20036;-92
2022/08/17 14:01:33;;;;;;;34.78;31.00;;;;;;;23.14;70.52;101020.56;6151448;23;20048;-92
2022/08/17 14:04:01;;;;;;;31.95;28.65;;;;;;;23.10;70.21;101017.28;6151033;23;20406;-91
2022/08/17 14:06:33;;;;;;;34.30;30.70;;;;;;;22.91;70.17;101017.22;6150883;23;20393;-92
2022/08/17 14:09:01;;;;;;;37.28;32.97;;;;;;;22.77;71.52;101006.78;6150077;23;20052;-91
2022/08/17 14:11:26;;;;;;;36.78;32.65;;;;;;;22.71;71.53;101020.78;6149408;23;20009;-92
2022/08/17 14:13:51;;;;;;;40.03;33.35;;;;;;;22.73;70.59;101021.53;6151663;23;20380;-91
2022/08/17 14:16:17;;;;;;;35.45;31.42;;;;;;;22.84;70.88;101019.56;6149469;23;20009;-92
2022/08/17 14:18:42;;;;;;;36.47;30.85;;;;;;;23.06;70.55;101013.16;6150153;23;20318;-91
2022/08/17 14:21:08;;;;;;;37.33;33.03;;;;;;;23.31;70.24;101005.53;6150719;23;20004;-91
2022/08/17 14:23:34;;;;;;;34.45;30.85;;;;;;;23.63;70.20;101016.06;6150411;23;20005;-91
2022/08/17 14:26:00;;;;;;;34.67;30.92;;;;;;;23.84;69.01;101019.50;6177554;23;20008;-92
2022/08/17 14:28:27;;;;;;;35.67;31.55;;;;;;;23.94;67.49;101019.50;6126681;23;20029;-93
2022/08/17 14:30:53;;;;;;;34.20;30.58;;;;;;;23.71;65.72;101013.53;6149744;23;20079;-93
2022/08/17 14:33:21;;;;;;;36.17;32.42;;;;;;;23.47;67.94;101018.50;6150098;23;20027;-93